Time;durP1;ratioP1;P1;durP2;ratioP2;P2;SDS_P1;SDS_P2;PMS_P1;PMS_P2;Temp;Humidity;BMP_temperature;BMP_pressure;BME280_temperature;BME280_humidity;BME280_pressure;Samples;Min_cycle;Max_cycle;Signal;HPM_P1;HPM_P2
2022/05/10 00:01:29;;;;;;;6.67;4.43;;;;;;;7.93;nan;101683.69;5015402;28;20038;-80
2022/05/10 00:03:57;;;;;;;5.53;3.63;;;;;;;7.83;nan;101682.75;4994456;28;20045;-80
2022/05/10 00:06:25;;;;;;;6.13;3.83;;;;;;;7.75;nan;101688.84;4964647;28;20490;-80
2022/05/10 00:08:52;;;;;;;7.77;3.73;;;;;;;7.70;nan;101680.03;5011866;28;20038;-80
2022/05/10 00:11:19;;;;;;;5.67;3.50;;;;;;;7.67;nan;101690.53;4976800;28;20402;-80
2022/05/10 00:13:46;;;;;;;5.13;3.83;;;;;;;7.67;nan;101683.50;4995823;28;20394;-80
2022/05/10 00:16:15;;;;;;;10.17;4.00;;;;;;;7.65;nan;101686.97;4996479;28;20041;-79
2022/05/10 00:18:43;;;;;;;5.13;3.60;;;;;;;7.62;nan;101686.09;5005611;28;20034;-78
2022/05/10 00:21:11;;;;;;;5.67;3.90;;;;;;;7.65;nan;101687.91;5011063;28;20041;-78
2022/05/10 00:23:38;;;;;;;5.77;3.97;;;;;;;7.61;nan;101683.47;4987830;28;20034;-79
2022/05/10 00:26:05;;;;;;;5.37;4.10;;;;;;;7.67;nan;101677.38;4989506;28;20059;-79
2022/05/10 00:28:32;;;;;;;5.27;3.73;;;;;;;7.65;nan;101679.09;4981001;28;20042;-78
2022/05/10 00:30:59;;;;;;;4.77;3.63;;;;;;;7.55;nan;101683.41;5002009;28;20033;-79
2022/05/10 00:33:29;;;;;;;5.77;4.37;;;;;;;7.56;nan;101670.25;4989584;28;20038;-79
2022/05/10 00:35:57;;;;;;;5.30;3.50;;;;;;;7.52;nan;101664.97;5017235;28;20030;-79
2022/05/10 00:38:29;;;;;;;4.63;3.50;;;;;;;7.52;nan;101664.97;4992137;28;20037;-79
2022/05/10 00:41:02;;;;;;;4.90;3.80;;;;;;;7.45;nan;101660.53;4993643;28;20030;-79
2022/05/10 00:43:33;;;;;;;5.07;3.60;;;;;;;7.50;nan;101651.81;4991508;28;20033;-82
2022/05/10 00:46:08;;;;;;;7.03;4.40;;;;;;;7.45;nan;101655.28;4993942;28;20402;-79
2022/05/10 00:48:41;;;;;;;6.07;4.50;;;;;;;7.39;nan;101642.94;4974277;28;20038;-78
2022/05/10 00:51:16;;;;;;;5.93;3.77;;;;;;;7.43;nan;101646.50;4976451;28;20509;-81
2022/05/10 00:53:55;;;;;;;4.93;3.47;;;;;;;7.34;nan;101642.94;4965020;28;20411;-78
2022/05/10 00:56:51;;;;;;;5.43;3.30;;;;;;;7.32;nan;101635.91;4999614;28;20041;-81
2022/05/10 00:59:23;;;;;;;5.13;3.93;;;;;;;7.26;nan;101628.84;5009340;28;20041;-79
2022/05/10 01:01:54;;;;;;;5.13;3.30;;;;;;;7.32;nan;101628.03;5010855;28;20038;-81
2022/05/10 01:04:33;;;;;;;5.93;4.37;;;;;;;7.23;nan;101623.56;4975644;28;20041;-78
2022/05/10 01:07:16;;;;;;;7.10;4.17;;;;;;;7.22;nan;101621.78;5008312;28;20040;-78
2022/05/10 01:09:46;;;;;;;5.20;3.30;;;;;;;7.23;nan;101617.41;4993173;28;20038;-80
2022/05/10 01:12:22;;;;;;;4.83;4.27;;;;;;;7.21;nan;101616.50;4976924;28;20046;-79
2022/05/10 01:15:02;;;;;;;5.83;3.83;;;;;;;7.19;nan;101613.88;4990721;28;20037;-79
2022/05/10 01:17:29;;;;;;;4.97;3.53;;;;;;;7.19;nan;101613.88;4964034;28;20054;-79
2022/05/10 01:19:56;;;;;;;5.20;4.03;;;;;;;7.11;nan;101607.69;4993094;28;20038;-81
2022/05/10 01:22:45;;;;;;;4.80;3.43;;;;;;;7.08;nan;101607.66;5009942;28;20042;-79
2022/05/10 01:25:49;;;;;;;4.93;3.77;;;;;;;7.12;nan;101601.56;5015053;28;20040;-79
2022/05/10 01:28:32;;;;;;;4.90;3.77;;;;;;;7.11;nan;101601.53;4960288;28;20041;-78
2022/05/10 01:31:05;;;;;;;6.13;3.27;;;;;;;7.04;nan;101597.97;5012430;23;20426;-78
2022/05/10 01:33:36;;;;;;;5.45;4.03;;;;;;;7.08;nan;101602.41;4934634;28;20057;-77
2022/05/10 01:36:28;;;;;;;5.27;3.67;;;;;;;7.09;nan;101598.03;4942125;28;20069;-78
2022/05/10 01:39:14;;;;;;;6.57;3.77;;;;;;;7.09;nan;101595.41;4946447;28;20042;-77
2022/05/10 01:41:54;;;;;;;4.37;3.60;;;;;;;7.01;nan;101598.84;4952788;28;20049;-77
2022/05/10 01:44:28;;;;;;;4.93;3.20;;;;;;;6.93;nan;101591.75;4979804;28;20046;-77
2022/05/10 01:47:05;;;;;;;3.90;3.15;;;;;;;6.92;nan;101595.25;4975789;28;20031;-78
2022/05/10 01:49:39;;;;;;;6.73;3.80;;;;;;;6.97;nan;101598.78;4940531;28;20043;-76
2022/05/10 01:52:16;;;;;;;5.43;3.33;;;;;;;6.96;nan;101597.03;4973684;28;20407;-78
2022/05/10 01:54:57;;;;;;;4.67;3.73;;;;;;;6.92;nan;101597.88;4963442;28;20045;-77
2022/05/10 01:57:24;;;;;;;5.20;3.47;;;;;;;6.90;nan;101586.47;4973494;28;20035;-78
2022/05/10 01:59:59;;;;;;;4.30;3.00;;;;;;;6.87;nan;101592.56;4958483;28;20030;-78
2022/05/10 02:02:28;;;;;;;4.13;3.43;;;;;;;6.91;nan;101593.50;4926896;28;20050;-78
2022/05/10 02:04:58;;;;;;;4.90;3.90;;;;;;;6.92;nan;101590.88;4975041;28;20045;-78
2022/05/10 02:07:26;;;;;;;4.77;3.20;;;;;;;6.86;nan;101584.69;4955050;28;20047;-78
2022/05/10 02:10:07;;;;;;;4.50;3.23;;;;;;;6.87;nan;101583.81;4975744;28;20034;-78
2022/05/10 02:13:09;;;;;;;5.43;3.90;;;;;;;6.88;nan;101575.06;4949297;28;20057;-78
2022/05/10 02:15:47;;;;;;;4.63;3.40;;;;;;;6.87;nan;101581.19;4915785;28;20085;-77
2022/05/10 02:18:27;;;;;;;6.67;3.80;;;;;;;6.82;nan;101572.41;4954487;28;20043;-78
2022/05/10 02:21:09;;;;;;;6.13;3.57;;;;;;;6.70;nan;101579.25;4939269;28;20042;-78
2022/05/10 02:23:51;;;;;;;5.50;4.13;;;;;;;6.71;nan;101578.41;4958817;28;20054;-77
2022/05/10 02:26:22;;;;;;;5.73;3.50;;;;;;;6.62;nan;101573.06;4958041;28;20041;-77
2022/05/10 02:28:59;;;;;;;4.87;3.63;;;;;;;6.60;nan;101572.16;4940274;28;20400;-78
2022/05/10 02:31:31;;;;;;;4.33;3.70;;;;;;;6.64;nan;101566.09;4957332;28;20046;-77
2022/05/10 02:33:59;;;;;;;5.90;3.27;;;;;;;6.62;nan;101565.19;4936935;29;20047;-78
2022/05/10 02:36:26;;;;;;;4.57;3.73;;;;;;;6.65;nan;101567.84;4955081;28;20045;-78
2022/05/10 02:38:53;;;;;;;6.47;4.00;;;;;;;6.66;nan;101566.97;4955663;28;20043;-78
2022/05/10 02:41:21;;;;;;;5.03;3.97;;;;;;;6.65;nan;101561.72;4973405;28;20039;-78
2022/05/10 02:43:53;;;;;;;4.93;3.43;;;;;;;6.63;nan;101563.44;4941256;28;20034;-78
2022/05/10 02:46:20;;;;;;;5.43;3.83;;;;;;;6.67;nan;101563.50;4957866;28;20034;-78
2022/05/10 02:48:48;;;;;;;9.20;4.20;;;;;;;6.68;nan;101552.13;4954296;28;20123;-76
2022/05/10 02:51:17;;;;;;;7.07;4.10;;;;;;;6.58;nan;101552.03;4985405;28;20035;-77
2022/05/10 02:53:44;;;;;;;4.90;3.90;;;;;;;6.58;nan;101547.66;4955843;28;20045;-78
2022/05/10 02:56:17;;;;;;;6.53;3.93;;;;;;;6.60;nan;101545.91;4957117;28;20050;-78
2022/05/10 02:58:50;;;;;;;5.37;3.80;;;;;;;6.59;nan;101541.53;4939471;28;20518;-78
2022/05/10 03:01:16;;;;;;;7.27;3.80;;;;;;;6.56;nan;101544.13;4954966;28;20026;-78
2022/05/10 03:03:44;;;;;;;5.70;3.37;;;;;;;6.46;nan;101537.00;4954830;28;20495;-77
2022/05/10 03:06:22;;;;;;;5.00;3.80;;;;;;;6.44;nan;101537.00;4959901;28;20035;-78
2022/05/10 03:08:50;;;;;;;6.47;4.20;;;;;;;6.47;nan;101529.19;4962166;28;20178;-79
2022/05/10 03:11:18;;;;;;;7.23;4.30;;;;;;;6.46;nan;101532.63;4939002;28;20700;-77
2022/05/10 03:13:47;;;;;;;8.10;4.10;;;;;;;6.52;nan;101536.19;4954525;28;20045;-78
2022/05/10 03:16:19;;;;;;;;;;;;;;;6.41;nan;101529.09;4958751;28;20403;-78
2022/05/10 03:18:46;;;;;;;6.07;3.80;;;;;;;6.42;nan;101527.34;4952374;28;19937;-78
2022/05/10 03:21:13;;;;;;;5.10;3.60;;;;;;;6.43;nan;101529.09;4938116;29;20041;-78
2022/05/10 03:23:40;;;;;;;7.30;4.63;;;;;;;6.47;nan;101525.63;4968941;28;20491;-77
2022/05/10 03:26:09;;;;;;;10.47;6.80;;;;;;;6.43;nan;101531.72;4957146;28;20046;-78
2022/05/10 03:28:36;;;;;;;8.30;5.33;;;;;;;6.41;nan;101531.72;4957163;28;20415;-78
2022/05/10 03:31:07;;;;;;;7.13;4.90;;;;;;;6.44;nan;101528.25;4940704;28;20039;-79
2022/05/10 03:33:34;;;;;;;8.33;4.37;;;;;;;6.49;nan;101526.56;4937282;29;20051;-78
2022/05/10 03:36:01;;;;;;;7.50;3.80;;;;;;;6.68;nan;101525.84;4970249;28;20041;-79
2022/05/10 03:38:29;;;;;;;5.90;4.27;;;;;;;6.65;nan;101519.72;4946385;28;20281;-78
2022/05/10 03:40:56;;;;;;;6.70;3.90;;;;;;;6.62;nan;101522.28;4955223;28;20045;-78
2022/05/10 03:43:23;;;;;;;6.67;4.20;;;;;;;6.59;nan;101517.91;4962204;28;20051;-78
2022/05/10 03:45:50;;;;;;;6.63;3.60;;;;;;;6.65;nan;101519.72;4955936;28;20037;-78
2022/05/10 03:48:17;;;;;;;6.67;4.27;;;;;;;6.67;nan;101521.47;4953454;28;20041;-78
2022/05/10 03:50:44;;;;;;;5.87;4.17;;;;;;;6.71;nan;101517.13;4956521;28;20313;-78
2022/05/10 03:53:11;;;;;;;5.73;3.83;;;;;;;6.80;nan;101511.94;4937449;28;20046;-77
2022/05/10 03:55:38;;;;;;;8.50;3.90;;;;;;;6.74;nan;101512.78;4921239;29;20053;-77
2022/05/10 03:58:05;;;;;;;10.83;4.27;;;;;;;6.73;nan;101510.16;4966628;28;20042;-78
2022/05/10 04:00:32;;;;;;;5.47;3.93;;;;;;;6.77;nan;101504.94;4951428;28;20027;-76
2022/05/10 04:02:59;;;;;;;4.67;3.20;;;;;;;6.77;nan;101507.56;4955084;28;20042;-78
2022/05/10 04:05:27;;;;;;;5.90;4.10;;;;;;;6.75;nan;101501.41;4956383;28;20407;-77
2022/05/10 04:07:54;;;;;;;6.63;3.50;;;;;;;6.81;nan;101500.59;4962476;28;20046;-77
2022/05/10 04:10:22;;;;;;;5.57;3.70;;;;;;;6.89;nan;101496.25;4956226;28;20027;-76
2022/05/10 04:12:50;;;;;;;5.53;3.70;;;;;;;6.88;nan;101491.88;4951290;29;20061;-77
2022/05/10 04:15:19;;;;;;;5.27;3.70;;;;;;;6.98;nan;101490.22;4960952;28;20039;-79
2022/05/10 04:17:46;;;;;;;5.13;3.60;;;;;;;6.97;nan;101493.69;4907280;29;20055;-79
2022/05/10 04:20:14;;;;;;;6.57;4.00;;;;;;;7.06;nan;101488.50;4939284;28;20043;-80
2022/05/10 04:22:41;;;;;;;7.40;4.10;;;;;;;7.04;nan;101490.25;4937900;28;20039;-77
2022/05/10 04:25:16;;;;;;;12.07;7.10;;;;;;;7.16;nan;101487.72;4970404;28;20046;-78
2022/05/10 04:27:44;;;;;;;12.17;5.77;;;;;;;7.26;nan;101486.03;4953179;28;20042;-78
2022/05/10 04:30:11;;;;;;;9.50;5.03;;;;;;;7.27;nan;101487.78;4954803;28;20373;-78
2022/05/10 04:32:38;;;;;;;5.30;4.30;;;;;;;7.36;nan;101481.69;4970077;28;20061;-77
2022/05/10 04:35:06;;;;;;;5.60;3.80;;;;;;;7.36;nan;101477.31;4972352;28;20599;-76
2022/05/10 04:37:34;;;;;;;7.23;4.03;;;;;;;7.39;nan;101472.06;4952938;28;20039;-77
2022/05/10 04:42:46;;;;;;;7.47;4.00;;;;;;;7.61;nan;101470.44;4969961;28;20068;-78
2022/05/10 04:45:14;;;;;;;5.80;3.37;;;;;;;7.72;nan;101474.00;4952098;28;20051;-77
2022/05/10 04:47:41;;;;;;;5.70;3.80;;;;;;;7.75;nan;101467.88;4968645;28;20038;-78
2022/05/10 04:50:09;;;;;;;9.10;5.17;;;;;;;7.83;nan;101477.56;4954603;28;20062;-79
2022/05/10 04:52:36;;;;;;;4.80;3.47;;;;;;;7.90;nan;101474.09;4950248;28;20045;-78
2022/05/10 04:55:05;;;;;;;6.00;4.00;;;;;;;7.99;nan;101472.31;4953881;28;20047;-78
2022/05/10 04:57:33;;;;;;;4.70;3.70;;;;;;;8.21;nan;101474.16;4942036;28;20039;-80
2022/05/10 05:00:00;;;;;;;8.87;4.17;;;;;;;8.59;nan;101469.00;4967824;28;20041;-79
2022/05/10 05:02:26;;;;;;;5.80;3.23;;;;;;;8.76;nan;101466.34;4931834;28;20039;-78
2022/05/10 05:04:53;;;;;;;5.60;3.47;;;;;;;8.85;nan;101455.81;4954087;28;20050;-78
2022/05/10 05:07:20;;;;;;;7.27;3.90;;;;;;;8.97;nan;101454.91;4953553;28;20522;-78
2022/05/10 05:09:47;;;;;;;7.57;3.90;;;;;;;9.05;nan;101457.53;4969049;28;20043;-79
2022/05/10 05:12:14;;;;;;;9.05;3.42;;;;;;;9.09;nan;101456.66;4953294;28;20100;-79
2022/05/10 05:14:41;;;;;;;7.07;3.47;;;;;;;9.25;nan;101455.75;4949909;29;20050;-79
2022/05/10 05:17:08;;;;;;;6.43;4.27;;;;;;;9.56;nan;101453.88;4969888;28;20047;-78
2022/05/10 05:19:35;;;;;;;8.98;3.63;;;;;;;9.74;nan;101452.94;4952425;28;20718;-78
2022/05/10 05:22:02;;;;;;;6.00;3.47;;;;;;;9.85;nan;101449.38;4958085;28;20027;-79
2022/05/10 05:24:29;;;;;;;5.25;3.60;;;;;;;9.99;nan;101446.66;4951843;28;20047;-78
2022/05/10 05:26:56;;;;;;;7.57;4.00;;;;;;;10.14;nan;101440.41;4968523;28;20045;-79
2022/05/10 05:29:23;;;;;;;6.75;4.13;;;;;;;10.34;nan;101437.66;4949225;28;20395;-78
2022/05/10 05:32:06;;;;;;;5.90;3.42;;;;;;;10.58;nan;101439.25;4950147;29;20040;-78
2022/05/10 05:34:35;;;;;;;6.35;4.05;;;;;;;10.78;nan;101439.09;4910967;29;20051;-79
2022/05/10 05:39:49;;;;;;;7.28;3.85;;;;;;;11.13;nan;101436.97;4951458;29;20060;-77
2022/05/10 05:42:17;;;;;;;5.00;3.67;;;;;;;11.28;nan;101441.25;4949389;28;20134;-79
2022/05/10 05:44:45;;;;;;;5.18;3.47;;;;;;;11.52;nan;101440.09;4945175;29;20039;-78
2022/05/10 05:47:12;;;;;;;5.55;3.85;;;;;;;11.70;nan;101438.97;4949863;28;20045;-78
2022/05/10 05:49:39;;;;;;;6.47;3.75;;;;;;;11.97;nan;101438.66;4967986;28;20049;-78
2022/05/10 05:52:06;;;;;;;9.23;4.82;;;;;;;12.30;nan;101447.00;4953849;28;20030;-79
2022/05/10 05:54:33;;;;;;;5.20;3.55;;;;;;;12.62;nan;101438.56;4937042;28;20045;-78
2022/05/10 05:57:06;;;;;;;6.32;3.50;;;;;;;12.95;nan;101442.41;4970780;28;20604;-77
2022/05/10 05:59:34;;;;;;;4.90;3.60;;;;;;;13.25;nan;101441.00;4937291;28;20522;-77
2022/05/10 06:02:13;;;;;;;7.50;3.60;;;;;;;13.77;nan;101435.50;4964711;28;20039;-80
2022/05/10 06:04:40;;;;;;;7.13;3.50;;;;;;;14.46;nan;101433.09;4953622;28;20027;-78
2022/05/10 06:07:09;;;;;;;6.57;3.42;;;;;;;14.95;nan;101432.72;4956712;28;20039;-81
2022/05/10 06:09:37;;;;;;;4.85;3.35;;;;;;;15.15;nan;101438.41;4951787;28;20031;-78
2022/05/10 06:12:05;;;;;;;5.80;3.50;;;;;;;15.47;nan;101426.00;4957194;28;20038;-78
2022/05/10 06:14:34;;;;;;;6.07;3.60;;;;;;;15.75;nan;101426.09;4964379;28;20046;-79
2022/05/10 06:17:05;;;;;;;7.28;3.58;;;;;;;15.97;nan;101419.19;4958322;28;20061;-77
2022/05/10 06:19:34;;;;;;;6.40;3.47;;;;;;;16.26;nan;101415.63;4955890;28;20038;-79
2022/05/10 06:22:01;;;;;;;4.95;3.67;;;;;;;16.50;nan;101415.75;4940992;29;20039;-77
2022/05/10 06:24:29;;;;;;;5.05;3.42;;;;;;;16.81;nan;101408.47;4955876;28;20542;-77
2022/05/10 06:26:56;;;;;;;6.88;3.40;;;;;;;17.19;nan;101408.94;4938116;29;20035;-79
2022/05/10 06:29:23;;;;;;;4.68;3.28;;;;;;;17.51;nan;101410.44;4955044;28;20038;-77
2022/05/10 06:31:50;;;;;;;6.25;3.40;;;;;;;17.82;nan;101404.81;4957242;28;20049;-78
2022/05/10 06:34:17;;;;;;;6.53;3.40;;;;;;;17.99;nan;101398.81;4955508;28;20427;-80
2022/05/10 06:36:44;;;;;;;10.43;4.00;;;;;;;18.11;nan;101411.72;4972712;28;20038;-77
2022/05/10 06:39:11;;;;;;;7.30;3.80;;;;;;;18.45;nan;101395.16;4971263;28;20034;-80
2022/05/10 06:41:38;;;;;;;6.53;4.05;;;;;;;18.67;nan;101405.00;4956979;28;20403;-79
2022/05/10 06:44:05;;;;;;;6.95;3.92;;;;;;;18.76;nan;101393.91;4967755;28;20039;-78
2022/05/10 06:46:34;;;;;;;6.38;3.65;;;;;;;18.90;nan;101407.56;4974070;28;20038;-78
2022/05/10 06:49:04;;;;;;;5.95;3.92;;;;;;;19.10;nan;101404.91;4971499;28;20408;-77
2022/05/10 06:51:31;;;;;;;8.13;3.55;;;;;;;19.26;nan;101398.88;4972844;28;20045;-80
2022/05/10 06:53:59;;;;;;;6.00;3.72;;;;;;;19.42;nan;101394.53;4956815;28;20061;-79
2022/05/10 06:56:26;;;;;;;5.70;4.10;;;;;;;19.47;nan;101384.47;4933463;28;20051;-79
2022/05/10 06:58:53;;;;;;;5.65;3.50;;;;;;;19.69;nan;101379.03;4951055;28;20489;-78
2022/05/10 07:01:20;;;;;;;5.80;3.38;;;;;;;19.84;nan;101382.78;4971643;28;20427;-80
2022/05/10 07:03:49;;;;;;;4.90;3.20;;;;;;;20.04;nan;101369.31;4959958;28;20035;-78
2022/05/10 07:06:22;;;;;;;6.10;3.53;;;;;;;20.29;nan;101360.91;4941573;28;20042;-78
2022/05/10 07:08:49;;;;;;;8.38;4.00;;;;;;;20.63;nan;101360.13;4939026;28;20035;-78
2022/05/10 07:11:18;;;;;;;4.95;3.42;;;;;;;20.69;nan;101367.88;4970082;28;20033;-81
2022/05/10 07:13:45;;;;;;;6.22;3.28;;;;;;;21.17;nan;101363.53;4968351;28;20553;-79
2022/05/10 07:16:12;;;;;;;11.27;4.97;;;;;;;21.40;nan;101372.22;4972775;28;20045;-77
2022/05/10 07:18:39;;;;;;;8.30;4.07;;;;;;;21.25;nan;101373.88;4967186;28;20117;-79
2022/05/10 07:21:06;;;;;;;6.10;3.67;;;;;;;21.30;nan;101370.03;4939342;28;20403;-76
2022/05/10 07:23:33;;;;;;;5.75;3.20;;;;;;;21.52;nan;101367.03;4954543;28;20038;-78
2022/05/10 07:26:03;;;;;;;5.18;3.22;;;;;;;21.54;nan;101372.34;4955550;28;20042;-77
2022/05/10 07:28:30;;;;;;;8.32;3.72;;;;;;;21.81;nan;101368.13;4955150;28;20049;-78
2022/05/10 07:30:58;;;;;;;5.95;3.40;;;;;;;22.01;nan;101360.72;5010519;23;20094;-92
2022/05/10 07:33:29;;;;;;;5.15;3.17;;;;;;;22.10;nan;101349.47;4996712;28;20211;-93
2022/05/10 07:38:42;;;;;;;7.75;3.58;;;;;;;22.54;nan;101351.41;4994736;28;20081;-95
2022/05/10 07:41:11;;;;;;;4.22;3.33;;;;;;;22.67;nan;101349.69;4975027;28;20054;-95
2022/05/10 07:43:40;;;;;;;8.23;4.07;;;;;;;22.59;nan;101342.06;4969837;28;20065;-94
2022/05/10 07:46:07;;;;;;;7.82;3.30;;;;;;;22.84;nan;101348.69;4987616;23;20078;-78
2022/05/10 07:48:34;;;;;;;4.88;3.20;;;;;;;23.12;nan;101343.38;4979050;28;20045;-77
2022/05/10 07:51:02;;;;;;;5.05;3.70;;;;;;;22.89;nan;101341.22;4970864;28;20045;-78
2022/05/10 07:53:32;;;;;;;6.72;3.35;;;;;;;22.96;nan;101343.47;4953357;28;20049;-77
2022/05/10 07:56:00;;;;;;;4.18;2.97;;;;;;;23.05;nan;101338.47;4971377;28;20038;-78
2022/05/10 07:58:28;;;;;;;3.92;3.35;;;;;;;23.00;nan;101338.72;4969586;28;20042;-78
2022/05/10 08:00:56;;;;;;;5.20;3.55;;;;;;;22.97;nan;101334.41;4969878;28;20405;-77
2022/05/10 08:03:25;;;;;;;5.07;3.47;;;;;;;23.21;nan;101323.06;4968722;28;20038;-77
2022/05/10 08:05:56;;;;;;;6.60;3.65;;;;;;;23.22;nan;101322.09;4955224;28;20041;-77
2022/05/10 08:08:23;;;;;;;5.97;3.53;;;;;;;22.79;nan;101323.88;4968080;28;20035;-77
2022/05/10 08:10:53;;;;;;;8.45;4.07;;;;;;;23.09;nan;101321.13;4949929;28;20035;-77
2022/05/10 08:13:25;;;;;;;6.20;3.67;;;;;;;23.39;nan;101315.66;4968580;28;20065;-78
2022/05/10 08:15:52;;;;;;;10.00;3.85;;;;;;;23.54;nan;101318.25;4970944;28;20053;-78
2022/05/10 08:18:20;;;;;;;5.50;3.38;;;;;;;23.71;nan;101302.78;4969200;28;20045;-78
2022/05/10 08:20:49;;;;;;;4.55;3.28;;;;;;;23.97;nan;101301.09;4970335;28;20043;-78
2022/05/10 08:23:23;;;;;;;5.78;3.25;;;;;;;24.15;nan;101308.84;4953538;28;20038;-77
2022/05/10 08:25:51;;;;;;;5.47;3.30;;;;;;;24.26;nan;101300.00;4970954;28;20038;-78
2022/05/10 08:28:18;;;;;;;5.75;3.40;;;;;;;24.45;nan;101299.66;4951306;28;20065;-77
2022/05/10 08:30:46;;;;;;;7.05;3.67;;;;;;;24.51;nan;101299.22;4983587;28;20039;-77
2022/05/10 08:33:18;;;;;;;5.38;2.95;;;;;;;24.49;nan;101298.47;4950335;28;20514;-77
2022/05/10 08:35:47;;;;;;;6.07;3.50;;;;;;;24.50;nan;101302.91;4968116;28;20041;-77
2022/05/10 08:38:14;;;;;;;6.65;3.67;;;;;;;24.81;nan;101298.09;4966832;28;20038;-78
2022/05/10 08:40:46;;;;;;;6.85;3.25;;;;;;;25.00;nan;101293.13;4969399;28;20031;-78
2022/05/10 08:43:21;;;;;;;4.22;3.13;;;;;;;25.01;nan;101291.28;4960450;28;20404;-77
2022/05/10 08:45:48;;;;;;;8.77;3.50;;;;;;;25.34;nan;101285.31;4971614;28;20046;-77
2022/05/10 08:48:15;;;;;;;46.97;10.10;;;;;;;25.59;nan;101284.41;4963108;28;20043;-77
2022/05/10 08:50:46;;;;;;;7.57;3.40;;;;;;;25.58;nan;101274.56;4952837;28;20041;-77
2022/05/10 08:53:13;;;;;;;5.63;3.00;;;;;;;25.66;nan;101274.84;4952274;28;20047;-77
2022/05/10 08:55:44;;;;;;;4.78;3.22;;;;;;;25.64;nan;101272.22;4970206;28;20039;-77
2022/05/10 08:58:39;;;;;;;6.38;3.60;;;;;;;25.74;nan;101275.19;4952359;28;20083;-77
2022/05/10 09:01:31;;;;;;;4.20;3.60;;;;;;;25.71;nan;101272.69;4951730;28;20046;-77
2022/05/10 09:04:24;;;;;;;5.75;3.42;;;;;;;25.76;nan;101267.81;4964085;28;20068;-76
2022/05/10 09:07:05;;;;;;;5.18;3.08;;;;;;;25.71;nan;101261.84;4974618;28;20047;-78
2022/05/10 09:09:33;;;;;;;5.10;2.78;;;;;;;25.86;nan;101259.84;4959758;28;20042;-78
2022/05/10 09:12:10;;;;;;;8.52;3.92;;;;;;;25.86;nan;101254.44;4966478;28;20442;-78
2022/05/10 09:14:59;;;;;;;5.28;3.30;;;;;;;24.83;nan;101253.75;4964302;28;20402;-78
2022/05/10 09:17:30;;;;;;;5.55;3.13;;;;;;;25.29;nan;101236.97;4979806;28;20047;-77
2022/05/10 09:19:58;;;;;;;5.38;3.45;;;;;;;25.90;nan;101237.00;4969802;28;20531;-77
2022/05/10 09:22:57;;;;;;;5.68;3.25;;;;;;;26.20;nan;101242.78;4967802;28;20406;-77
2022/05/10 09:25:30;;;;;;;6.28;2.95;;;;;;;25.69;nan;101237.59;4968597;28;20047;-77
2022/05/10 09:27:59;;;;;;;85.68;13.18;;;;;;;26.00;nan;101233.47;4966440;28;20043;-77
2022/05/10 09:30:31;;;;;;;7.50;3.28;;;;;;;26.13;nan;101235.22;4983519;28;20055;-77
2022/05/10 09:36:03;;;;;;;5.47;2.83;;;;;;;26.68;nan;101233.69;4971098;28;20667;-77
2022/05/10 09:38:30;;;;;;;4.90;2.72;;;;;;;27.00;nan;101223.00;4965371;28;20065;-78
2022/05/10 09:40:58;;;;;;;7.88;3.10;;;;;;;27.16;nan;101226.22;4971787;28;20031;-77
2022/05/10 09:43:32;;;;;;;3.55;2.53;;;;;;;27.59;nan;101220.84;4955692;28;20053;-77
2022/05/10 09:46:09;;;;;;;5.55;3.15;;;;;;;27.76;nan;101214.91;4954389;28;20039;-77
2022/05/10 09:48:38;;;;;;;5.22;3.08;;;;;;;27.81;nan;101211.78;4963379;28;20041;-77
2022/05/10 09:51:29;;;;;;;4.80;2.85;;;;;;;27.86;nan;101211.41;4972610;28;20034;-77
2022/05/10 09:53:57;;;;;;;4.03;3.10;;;;;;;27.84;nan;101203.38;4968891;28;20031;-77
2022/05/10 09:56:23;;;;;;;4.00;2.67;;;;;;;28.01;nan;101204.69;4973767;28;20049;-77
2022/05/10 09:58:58;;;;;;;4.57;2.92;;;;;;;27.84;nan;101192.53;4969933;28;21333;-78
2022/05/10 10:01:48;;;;;;;6.35;3.42;;;;;;;27.75;nan;101194.16;4967326;28;20039;-76
2022/05/10 10:04:33;;;;;;;5.63;3.13;;;;;;;27.75;nan;101191.47;4969023;28;20427;-75
2022/05/10 10:07:18;;;;;;;5.85;3.25;;;;;;;27.41;nan;101187.97;4953247;28;20114;-75
2022/05/10 10:09:51;;;;;;;4.57;2.90;;;;;;;27.70;nan;101190.09;4960693;28;20045;-78
2022/05/10 10:12:41;;;;;;;6.40;2.90;;;;;;;27.43;nan;101180.53;4971329;28;20034;-76
2022/05/10 10:15:31;;;;;;;6.88;3.47;;;;;;;27.69;nan;101185.66;4977029;28;20047;-77
2022/05/10 10:18:00;;;;;;;5.70;3.00;;;;;;;27.87;nan;101189.53;4961848;28;20533;-76
2022/05/10 10:20:33;;;;;;;3.97;3.10;;;;;;;27.55;nan;101178.66;4971421;28;20045;-77
2022/05/10 10:23:03;;;;;;;6.80;3.47;;;;;;;27.90;nan;101177.56;4972379;28;20031;-78
2022/05/10 10:25:41;;;;;;;6.47;3.47;;;;;;;28.25;nan;101163.63;4956562;28;20512;-76
2022/05/10 10:28:20;;;;;;;7.40;3.47;;;;;;;28.49;nan;101166.13;4971045;28;20407;-77
2022/05/10 10:31:02;;;;;;;5.63;3.55;;;;;;;28.62;nan;101163.19;4968839;28;20448;-78
2022/05/10 10:33:36;;;;;;;5.00;3.00;;;;;;;28.28;nan;101157.97;4961283;28;20035;-78
2022/05/10 10:36:14;;;;;;;9.18;3.28;;;;;;;27.98;nan;101156.03;4938758;29;20039;-77
2022/05/10 10:38:55;;;;;;;8.93;3.40;;;;;;;27.89;nan;101145.97;4947339;28;20047;-77
2022/05/10 10:41:32;;;;;;;9.23;3.70;;;;;;;28.07;nan;101143.50;4970717;28;20039;-77
2022/05/10 10:44:17;;;;;;;5.38;3.28;;;;;;;27.92;nan;101140.28;4966902;28;20037;-77
2022/05/10 10:46:57;;;;;;;10.05;3.17;;;;;;;27.97;nan;101130.72;4971463;28;20030;-76
2022/05/10 10:49:34;;;;;;;4.43;3.55;;;;;;;27.86;nan;101136.22;4952500;28;20050;-77
2022/05/10 10:52:01;;;;;;;18.92;4.00;;;;;;;27.89;nan;101133.25;4964114;28;20042;-77
2022/05/10 10:54:29;;;;;;;4.22;2.92;;;;;;;27.84;nan;101127.38;4968708;28;20043;-77
2022/05/10 10:57:17;;;;;;;6.63;3.35;;;;;;;28.11;nan;101128.69;4970245;28;20039;-77
2022/05/10 11:00:12;;;;;;;4.93;2.90;;;;;;;28.53;nan;101119.50;4970925;28;20049;-77
2022/05/10 11:03:01;;;;;;;5.13;3.58;;;;;;;28.54;nan;101112.22;4961208;28;20045;-76
2022/05/10 11:05:40;;;;;;;4.28;2.63;;;;;;;28.51;nan;101096.19;4983975;28;20041;-77
2022/05/10 11:08:32;;;;;;;4.90;3.25;;;;;;;29.04;nan;101106.81;4967088;28;20514;-77
2022/05/10 11:11:11;;;;;;;6.85;3.13;;;;;;;28.91;nan;101101.63;4966503;28;20041;-77
2022/05/10 11:14:16;;;;;;;4.65;3.45;;;;;;;28.92;nan;101092.47;4972041;28;20042;-77
2022/05/10 11:17:05;;;;;;;6.07;3.58;;;;;;;28.94;nan;101089.63;4968362;28;20035;-77
2022/05/10 11:19:41;;;;;;;5.32;3.40;;;;;;;28.72;nan;101083.38;4971446;28;20053;-77
2022/05/10 11:22:29;;;;;;;52.45;9.18;;;;;;;28.62;nan;101081.63;4969945;28;20507;-76
2022/05/10 11:25:17;;;;;;;4.70;3.25;;;;;;;28.95;nan;101075.88;4971258;28;20057;-76
2022/05/10 11:27:52;;;;;;;4.50;3.13;;;;;;;29.27;nan;101072.06;4964766;28;20054;-76
2022/05/10 11:30:32;;;;;;;4.22;3.28;;;;;;;28.96;nan;101082.19;4952418;28;20102;-77
2022/05/10 11:33:09;;;;;;;5.43;3.10;;;;;;;28.73;nan;101073.34;4958327;28;20506;-77
2022/05/10 11:35:46;;;;;;;5.07;3.17;;;;;;;28.62;nan;101059.88;4970327;28;20542;-77
2022/05/10 11:38:32;;;;;;;5.97;3.47;;;;;;;28.61;nan;101067.19;4971172;28;20035;-77
2022/05/10 11:41:21;;;;;;;11.10;3.97;;;;;;;28.68;nan;101056.63;4971498;28;20039;-76
2022/05/10 11:44:22;;;;;;;6.57;3.22;;;;;;;28.62;nan;101055.28;4971836;28;20038;-77
2022/05/10 11:46:59;;;;;;;7.25;3.70;;;;;;;28.18;nan;101060.09;4969891;28;20043;-77
2022/05/10 11:50:04;;;;;;;69.30;12.30;;;;;;;27.96;nan;101046.69;4967628;28;20495;-77
2022/05/10 11:52:49;;;;;;;4.53;3.60;;;;;;;27.83;nan;101046.91;4968187;28;20035;-77
2022/05/10 11:55:24;;;;;;;5.45;3.17;;;;;;;27.39;nan;101027.09;4970855;28;20042;-77
2022/05/10 11:57:56;;;;;;;6.45;3.53;;;;;;;27.43;nan;101022.28;4968137;28;20043;-76
2022/05/10 12:00:26;;;;;;;5.45;3.45;;;;;;;27.61;nan;101030.69;4949320;28;20035;-76
2022/05/10 12:02:54;;;;;;;5.22;3.67;;;;;;;27.95;nan;101025.94;4967070;28;20035;-76
2022/05/10 12:05:25;;;;;;;5.57;3.65;;;;;;;28.02;nan;101014.41;4969787;28;20057;-76
2022/05/10 12:07:54;;;;;;;7.80;3.78;;;;;;;28.03;nan;101016.13;4970048;28;20049;-77
2022/05/10 12:10:40;;;;;;;4.45;3.40;;;;;;;28.13;nan;101010.72;4970848;28;20057;-77
2022/05/10 12:22:14;;;;;;;6.47;3.65;;;;;;;28.51;nan;100996.47;4970942;28;20400;-79
2022/05/10 12:24:45;;;;;;;5.10;3.30;;;;;;;28.64;nan;100995.34;4956093;28;20043;-78
2022/05/10 12:27:12;;;;;;;4.32;3.35;;;;;;;28.64;nan;100996.19;4950831;29;20039;-77
2022/05/10 12:29:39;;;;;;;4.63;3.55;;;;;;;28.75;nan;100987.91;4952034;29;20035;-77
2022/05/10 12:32:21;;;;;;;5.78;3.85;;;;;;;28.93;nan;100990.00;4968096;28;20052;-78